sensor_id;sensor_type;location;lat;lon;timestamp;temperature;humidity
25328;DHT22;13279;51.300;12.394;2024-03-22T00:38:49;7.00;99.90
25328;DHT22;13279;51.300;12.394;2024-03-22T00:41:17;7.00;99.90
25328;DHT22;13279;51.300;12.394;2024-03-22T00:43:44;6.90;99.90
25328;DHT22;13279;51.300;12.394;2024-03-22T00:46:10;6.90;99.90
25328;DHT22;13279;51.300;12.394;2024-03-22T00:48:38;6.80;99.90
25328;DHT22;13279;51.300;12.394;2024-03-22T00:51:04;6.80;99.90
25328;DHT22;13279;51.300;12.394;2024-03-22T00:53:32;6.70;99.90
25328;DHT22;13279;51.300;12.394;2024-03-22T00:55:58;6.70;99.90
25328;DHT22;13279;51.300;12.394;2024-03-22T00:58:30;6.60;99.90
25328;DHT22;13279;51.300;12.394;2024-03-22T01:00:57;6.70;99.90
25328;DHT22;13279;51.300;12.394;2024-03-22T01:03:24;6.60;99.90
25328;DHT22;13279;51.300;12.394;2024-03-22T01:05:50;6.60;99.90
25328;DHT22;13279;51.300;12.394;2024-03-22T01:08:18;6.60;99.90
25328;DHT22;13279;51.300;12.394;2024-03-22T01:10:45;6.50;99.90
25328;DHT22;13279;51.300;12.394;2024-03-22T01:13:12;6.50;99.90
25328;DHT22;13279;51.300;12.394;2024-03-22T01:15:41;6.50;99.90
25328;DHT22;13279;51.300;12.394;2024-03-22T01:18:10;6.50;99.90
25328;DHT22;13279;51.300;12.394;2024-03-22T01:20:36;6.40;99.90
25328;DHT22;13279;51.300;12.394;2024-03-22T01:23:04;6.40;99.90
25328;DHT22;13279;51.300;12.394;2024-03-22T01:25:30;6.40;99.90
25328;DHT22;13279;51.300;12.394;2024-03-22T01:27:58;6.50;99.90
25328;DHT22;13279;51.300;12.394;2024-03-22T01:30:24;6.50;99.90
25328;DHT22;13279;51.300;12.394;2024-03-22T01:32:56;6.50;99.90
25328;DHT22;13279;51.300;12.394;2024-03-22T01:35:22;6.50;99.90
25328;DHT22;13279;51.300;12.394;2024-03-22T01:37:49;6.50;99.90
25328;DHT22;13279;51.300;12.394;2024-03-22T01:40:16;6.40;99.90
25328;DHT22;13279;51.300;12.394;2024-03-22T01:42:43;6.50;99.90
25328;DHT22;13279;51.300;12.394;2024-03-22T01:45:11;6.50;99.90
25328;DHT22;13279;51.300;12.394;2024-03-22T01:47:39;6.60;99.90
25328;DHT22;13279;51.300;12.394;2024-03-22T01:50:08;6.50;99.90
25328;DHT22;13279;51.300;12.394;2024-03-22T01:52:38;6.60;99.90
25328;DHT22;13279;51.300;12.394;2024-03-22T01:55:07;6.60;99.90
25328;DHT22;13279;51.300;12.394;2024-03-22T01:57:34;6.60;99.90
25328;DHT22;13279;51.300;12.394;2024-03-22T02:00:02;6.60;99.90
25328;DHT22;13279;51.300;12.394;2024-03-22T02:02:40;6.60;99.90
25328;DHT22;13279;51.300;12.394;2024-03-22T02:05:15;6.60;99.90
25328;DHT22;13279;51.300;12.394;2024-03-22T02:07:45;6.60;99.90
25328;DHT22;13279;51.300;12.394;2024-03-22T02:10:11;6.60;99.90
25328;DHT22;13279;51.300;12.394;2024-03-22T02:12:39;6.60;99.90
25328;DHT22;13279;51.300;12.394;2024-03-22T02:15:07;6.60;99.90
25328;DHT22;13279;51.300;12.394;2024-03-22T02:17:34;6.60;99.90
25328;DHT22;13279;51.300;12.394;2024-03-22T02:20:02;6.60;99.90
25328;DHT22;13279;51.300;12.394;2024-03-22T02:22:31;6.60;99.90
25328;DHT22;13279;51.300;12.394;2024-03-22T02:24:59;6.60;99.90
25328;DHT22;13279;51.300;12.394;2024-03-22T02:27:26;6.60;99.90
25328;DHT22;13279;51.300;12.394;2024-03-22T02:29:54;6.70;99.90
25328;DHT22;13279;51.300;12.394;2024-03-22T02:32:21;6.70;99.90
25328;DHT22;13279;51.300;12.394;2024-03-22T02:34:47;6.60;99.90
25328;DHT22;13279;51.300;12.394;2024-03-22T02:37:14;6.60;99.90
25328;DHT22;13279;51.300;12.394;2024-03-22T02:39:40;6.60;99.90
25328;DHT22;13279;51.300;12.394;2024-03-22T02:42:10;6.60;99.90
25328;DHT22;13279;51.300;12.394;2024-03-22T02:44:36;6.70;99.90
25328;DHT22;13279;51.300;12.394;2024-03-22T02:47:08;6.60;99.90
25328;DHT22;13279;51.300;12.394;2024-03-22T02:49:35;6.60;99.90
25328;DHT22;13279;51.300;12.394;2024-03-22T02:52:02;6.70;99.90
25328;DHT22;13279;51.300;12.394;2024-03-22T02:54:29;6.70;99.90
25328;DHT22;13279;51.300;12.394;2024-03-22T02:56:56;6.80;99.90
25328;DHT22;13279;51.300;12.394;2024-03-22T02:59:25;6.80;99.90
25328;DHT22;13279;51.300;12.394;2024-03-22T03:01:53;6.80;99.90
25328;DHT22;13279;51.300;12.394;2024-03-22T03:04:19;6.80;99.90
25328;DHT22;13279;51.300;12.394;2024-03-22T03:06:47;6.80;99.90
25328;DHT22;13279;51.300;12.394;2024-03-22T03:09:13;6.80;99.90
25328;DHT22;13279;51.300;12.394;2024-03-22T03:11:40;6.80;99.90
25328;DHT22;13279;51.300;12.394;2024-03-22T03:14:07;6.80;99.90
25328;DHT22;13279;51.300;12.394;2024-03-22T03:16:36;6.90;99.90
25328;DHT22;13279;51.300;12.394;2024-03-22T03:19:02;6.80;99.90
25328;DHT22;13279;51.300;12.394;2024-03-22T03:21:30;6.90;99.90
25328;DHT22;13279;51.300;12.394;2024-03-22T03:23:56;6.90;99.90
25328;DHT22;13279;51.300;12.394;2024-03-22T03:26:23;6.90;99.90
25328;DHT22;13279;51.300;12.394;2024-03-22T03:28:50;6.90;99.90
25328;DHT22;13279;51.300;12.394;2024-03-22T03:31:17;7.00;99.90
25328;DHT22;13279;51.300;12.394;2024-03-22T03:33:45;7.00;99.90
25328;DHT22;13279;51.300;12.394;2024-03-22T03:36:12;7.00;99.90
25328;DHT22;13279;51.300;12.394;2024-03-22T03:38:39;6.90;99.90
25328;DHT22;13279;51.300;12.394;2024-03-22T03:41:07;6.90;99.90
25328;DHT22;13279;51.300;12.394;2024-03-22T03:43:33;7.00;99.90
25328;DHT22;13279;51.300;12.394;2024-03-22T03:46:01;6.90;99.90
25328;DHT22;13279;51.300;12.394;2024-03-22T03:48:27;7.00;99.90
25328;DHT22;13279;51.300;12.394;2024-03-22T03:50:56;7.00;99.90
25328;DHT22;13279;51.300;12.394;2024-03-22T03:53:25;7.00;99.90
25328;DHT22;13279;51.300;12.394;2024-03-22T03:55:52;7.00;99.90
25328;DHT22;13279;51.300;12.394;2024-03-22T03:58:18;7.00;99.90
25328;DHT22;13279;51.300;12.394;2024-03-22T04:00:45;7.10;99.90
25328;DHT22;13279;51.300;12.394;2024-03-22T04:03:12;7.10;99.90
25328;DHT22;13279;51.300;12.394;2024-03-22T04:05:39;7.10;99.90
25328;DHT22;13279;51.300;12.394;2024-03-22T04:08:07;7.10;99.90
25328;DHT22;13279;51.300;12.394;2024-03-22T04:10:34;7.10;99.90
25328;DHT22;13279;51.300;12.394;2024-03-22T04:13:00;7.10;99.90
25328;DHT22;13279;51.300;12.394;2024-03-22T04:15:27;7.10;99.90
25328;DHT22;13279;51.300;12.394;2024-03-22T04:17:56;7.10;99.90
25328;DHT22;13279;51.300;12.394;2024-03-22T04:20:23;7.20;99.90
25328;DHT22;13279;51.300;12.394;2024-03-22T04:22:50;7.10;99.90
25328;DHT22;13279;51.300;12.394;2024-03-22T04:25:19;7.10;99.90
25328;DHT22;13279;51.300;12.394;2024-03-22T04:27:46;7.10;99.90
25328;DHT22;13279;51.300;12.394;2024-03-22T04:30:15;7.10;99.90
25328;DHT22;13279;51.300;12.394;2024-03-22T04:32:42;7.10;99.90
25328;DHT22;13279;51.300;12.394;2024-03-22T04:35:09;7.20;99.90
25328;DHT22;13279;51.300;12.394;2024-03-22T04:37:36;7.20;99.90
25328;DHT22;13279;51.300;12.394;2024-03-22T04:40:04;7.20;99.90
25328;DHT22;13279;51.300;12.394;2024-03-22T04:42:33;7.20;99.90
25328;DHT22;13279;51.300;12.394;2024-03-22T04:45:00;7.20;99.90
25328;DHT22;13279;51.300;12.394;2024-03-22T04:47:27;7.20;99.90
25328;DHT22;13279;51.300;12.394;2024-03-22T04:49:54;7.20;99.90
25328;DHT22;13279;51.300;12.394;2024-03-22T04:52:21;7.20;99.90
25328;DHT22;13279;51.300;12.394;2024-03-22T04:54:48;7.20;99.90
25328;DHT22;13279;51.300;12.394;2024-03-22T04:57:15;7.20;99.90
25328;DHT22;13279;51.300;12.394;2024-03-22T04:59:43;7.20;99.90
25328;DHT22;13279;51.300;12.394;2024-03-22T05:02:10;7.20;99.90
25328;DHT22;13279;51.300;12.394;2024-03-22T05:04:37;7.20;99.90
25328;DHT22;13279;51.300;12.394;2024-03-22T05:07:04;7.20;99.90
25328;DHT22;13279;51.300;12.394;2024-03-22T05:09:31;7.20;99.90
25328;DHT22;13279;51.300;12.394;2024-03-22T05:11:58;7.20;99.90
25328;DHT22;13279;51.300;12.394;2024-03-22T05:14:25;7.30;99.90
25328;DHT22;13279;51.300;12.394;2024-03-22T05:16:53;7.20;99.90
25328;DHT22;13279;51.300;12.394;2024-03-22T05:19:20;7.30;99.90
25328;DHT22;13279;51.300;12.394;2024-03-22T05:21:46;7.30;99.90
25328;DHT22;13279;51.300;12.394;2024-03-22T05:24:14;7.30;99.90
25328;DHT22;13279;51.300;12.394;2024-03-22T05:26:40;7.30;99.90
25328;DHT22;13279;51.300;12.394;2024-03-22T05:29:07;7.40;99.90
25328;DHT22;13279;51.300;12.394;2024-03-22T05:31:45;7.40;99.90
25328;DHT22;13279;51.300;12.394;2024-03-22T05:34:15;7.40;99.90
25328;DHT22;13279;51.300;12.394;2024-03-22T05:36:42;7.40;99.90
25328;DHT22;13279;51.300;12.394;2024-03-22T05:39:09;7.40;99.90
25328;DHT22;13279;51.300;12.394;2024-03-22T05:41:36;7.50;99.90
25328;DHT22;13279;51.300;12.394;2024-03-22T05:44:04;7.50;99.90
25328;DHT22;13279;51.300;12.394;2024-03-22T05:46:31;7.50;99.90
25328;DHT22;13279;51.300;12.394;2024-03-22T05:48:58;7.60;99.90
25328;DHT22;13279;51.300;12.394;2024-03-22T05:51:26;7.60;99.90
25328;DHT22;13279;51.300;12.394;2024-03-22T05:53:56;7.70;99.90
25328;DHT22;13279;51.300;12.394;2024-03-22T05:56:22;7.70;99.90
25328;DHT22;13279;51.300;12.394;2024-03-22T05:58:50;7.70;99.90
25328;DHT22;13279;51.300;12.394;2024-03-22T06:01:16;7.80;99.90
25328;DHT22;13279;51.300;12.394;2024-03-22T06:03:43;7.90;99.90
25328;DHT22;13279;51.300;12.394;2024-03-22T06:06:10;7.90;99.90
25328;DHT22;13279;51.300;12.394;2024-03-22T06:08:39;8.00;99.90
25328;DHT22;13279;51.300;12.394;2024-03-22T06:11:07;8.00;99.90
25328;DHT22;13279;51.300;12.394;2024-03-22T06:13:34;8.00;99.90
25328;DHT22;13279;51.300;12.394;2024-03-22T06:16:02;8.10;99.90
25328;DHT22;13279;51.300;12.394;2024-03-22T06:18:29;8.10;99.90
25328;DHT22;13279;51.300;12.394;2024-03-22T06:20:56;8.20;99.90
25328;DHT22;13279;51.300;12.394;2024-03-22T06:23:23;8.20;99.90
25328;DHT22;13279;51.300;12.394;2024-03-22T06:25:54;8.30;99.90
25328;DHT22;13279;51.300;12.394;2024-03-22T06:28:21;8.30;99.90
25328;DHT22;13279;51.300;12.394;2024-03-22T06:30:47;8.40;99.90
25328;DHT22;13279;51.300;12.394;2024-03-22T06:33:14;8.40;99.90
25328;DHT22;13279;51.300;12.394;2024-03-22T06:35:41;8.50;99.90
25328;DHT22;13279;51.300;12.394;2024-03-22T06:38:08;8.50;99.90
25328;DHT22;13279;51.300;12.394;2024-03-22T06:40:35;8.60;99.90
25328;DHT22;13279;51.300;12.394;2024-03-22T06:43:04;8.70;99.90
25328;DHT22;13279;51.300;12.394;2024-03-22T06:45:30;8.80;99.90
25328;DHT22;13279;51.300;12.394;2024-03-22T06:47:57;8.90;99.90
25328;DHT22;13279;51.300;12.394;2024-03-22T06:50:23;9.00;99.90
25328;DHT22;13279;51.300;12.394;2024-03-22T06:52:51;9.00;99.90
25328;DHT22;13279;51.300;12.394;2024-03-22T06:55:17;9.00;99.90
25328;DHT22;13279;51.300;12.394;2024-03-22T06:57:46;9.10;99.90
25328;DHT22;13279;51.300;12.394;2024-03-22T07:00:14;9.20;99.90
25328;DHT22;13279;51.300;12.394;2024-03-22T07:02:42;9.20;99.90
25328;DHT22;13279;51.300;12.394;2024-03-22T07:05:08;9.40;99.90
25328;DHT22;13279;51.300;12.394;2024-03-22T07:07:36;9.40;99.90
25328;DHT22;13279;51.300;12.394;2024-03-22T07:10:03;9.40;99.90
25328;DHT22;13279;51.300;12.394;2024-03-22T07:12:31;9.50;99.90
25328;DHT22;13279;51.300;12.394;2024-03-22T07:14:58;9.50;99.90
25328;DHT22;13279;51.300;12.394;2024-03-22T07:17:27;9.50;99.90
25328;DHT22;13279;51.300;12.394;2024-03-22T07:19:53;9.50;99.90
25328;DHT22;13279;51.300;12.394;2024-03-22T07:22:22;9.60;99.90
25328;DHT22;13279;51.300;12.394;2024-03-22T07:24:48;9.60;99.90
25328;DHT22;13279;51.300;12.394;2024-03-22T07:27:17;9.70;99.90
25328;DHT22;13279;51.300;12.394;2024-03-22T07:29:44;9.80;99.90
25328;DHT22;13279;51.300;12.394;2024-03-22T07:32:11;9.90;99.90
25328;DHT22;13279;51.300;12.394;2024-03-22T07:34:39;9.90;99.90
25328;DHT22;13279;51.300;12.394;2024-03-22T07:37:06;9.90;99.90
25328;DHT22;13279;51.300;12.394;2024-03-22T07:39:33;10.00;99.90
25328;DHT22;13279;51.300;12.394;2024-03-22T07:42:00;10.00;99.90
25328;DHT22;13279;51.300;12.394;2024-03-22T07:44:29;10.00;99.90
25328;DHT22;13279;51.300;12.394;2024-03-22T07:46:56;10.10;99.90
25328;DHT22;13279;51.300;12.394;2024-03-22T07:49:23;10.10;99.90
25328;DHT22;13279;51.300;12.394;2024-03-22T07:51:51;10.20;99.90
25328;DHT22;13279;51.300;12.394;2024-03-22T07:54:19;10.20;99.90
25328;DHT22;13279;51.300;12.394;2024-03-22T07:56:46;10.30;99.90
25328;DHT22;13279;51.300;12.394;2024-03-22T07:59:13;10.30;99.90
25328;DHT22;13279;51.300;12.394;2024-03-22T08:01:40;10.40;99.90
25328;DHT22;13279;51.300;12.394;2024-03-22T08:04:06;10.50;99.90
25328;DHT22;13279;51.300;12.394;2024-03-22T08:06:34;10.50;99.90
25328;DHT22;13279;51.300;12.394;2024-03-22T08:09:02;10.50;99.90
25328;DHT22;13279;51.300;12.394;2024-03-22T08:11:30;10.60;99.90
25328;DHT22;13279;51.300;12.394;2024-03-22T08:13:57;10.70;99.90
25328;DHT22;13279;51.300;12.394;2024-03-22T08:16:28;10.80;99.90
25328;DHT22;13279;51.300;12.394;2024-03-22T08:18:55;10.90;99.90
25328;DHT22;13279;51.300;12.394;2024-03-22T08:21:22;11.00;99.90
25328;DHT22;13279;51.300;12.394;2024-03-22T08:23:49;11.00;99.90
25328;DHT22;13279;51.300;12.394;2024-03-22T08:26:19;11.20;99.90
25328;DHT22;13279;51.300;12.394;2024-03-22T08:28:46;11.30;99.90
25328;DHT22;13279;51.300;12.394;2024-03-22T08:31:14;11.50;99.90
25328;DHT22;13279;51.300;12.394;2024-03-22T08:33:40;11.60;99.90
25328;DHT22;13279;51.300;12.394;2024-03-22T08:36:08;11.70;99.90
25328;DHT22;13279;51.300;12.394;2024-03-22T08:38:35;11.80;99.90
25328;DHT22;13279;51.300;12.394;2024-03-22T08:41:02;11.80;99.90
25328;DHT22;13279;51.300;12.394;2024-03-22T08:43:30;11.80;99.90
25328;DHT22;13279;51.300;12.394;2024-03-22T08:45:57;11.80;99.90
25328;DHT22;13279;51.300;12.394;2024-03-22T08:48:23;12.10;99.90
25328;DHT22;13279;51.300;12.394;2024-03-22T08:50:51;12.10;99.90
25328;DHT22;13279;51.300;12.394;2024-03-22T08:53:17;12.20;99.90
25328;DHT22;13279;51.300;12.394;2024-03-22T08:55:47;12.40;99.90
25328;DHT22;13279;51.300;12.394;2024-03-22T08:58:14;12.50;99.90
25328;DHT22;13279;51.300;12.394;2024-03-22T09:00:43;12.60;99.90
25328;DHT22;13279;51.300;12.394;2024-03-22T09:03:09;12.70;99.90
25328;DHT22;13279;51.300;12.394;2024-03-22T09:05:36;12.70;99.90
25328;DHT22;13279;51.300;12.394;2024-03-22T09:08:03;12.80;99.90
25328;DHT22;13279;51.300;12.394;2024-03-22T09:10:30;12.90;99.90
25328;DHT22;13279;51.300;12.394;2024-03-22T09:12:57;12.90;99.90
25328;DHT22;13279;51.300;12.394;2024-03-22T09:15:25;12.60;99.90
25328;DHT22;13279;51.300;12.394;2024-03-22T09:17:53;12.50;99.90
25328;DHT22;13279;51.300;12.394;2024-03-22T09:20:20;12.60;99.90
25328;DHT22;13279;51.300;12.394;2024-03-22T09:22:46;12.60;99.90
25328;DHT22;13279;51.300;12.394;2024-03-22T09:25:14;12.70;99.90
25328;DHT22;13279;51.300;12.394;2024-03-22T09:27:40;12.90;99.90
25328;DHT22;13279;51.300;12.394;2024-03-22T09:30:08;13.20;99.90
25328;DHT22;13279;51.300;12.394;2024-03-22T09:32:35;13.20;99.90
25328;DHT22;13279;51.300;12.394;2024-03-22T09:35:05;13.40;99.90
25328;DHT22;13279;51.300;12.394;2024-03-22T09:37:31;13.60;99.90
25328;DHT22;13279;51.300;12.394;2024-03-22T09:39:58;14.00;99.90
25328;DHT22;13279;51.300;12.394;2024-03-22T09:42:25;14.20;99.90
25328;DHT22;13279;51.300;12.394;2024-03-22T09:44:54;14.40;99.90
25328;DHT22;13279;51.300;12.394;2024-03-22T09:47:21;14.70;99.90
25328;DHT22;13279;51.300;12.394;2024-03-22T09:49:48;14.90;99.90
25328;DHT22;13279;51.300;12.394;2024-03-22T09:52:20;15.00;99.90
25328;DHT22;13279;51.300;12.394;2024-03-22T09:54:47;14.90;99.90
25328;DHT22;13279;51.300;12.394;2024-03-22T09:57:17;14.80;99.90
25328;DHT22;13279;51.300;12.394;2024-03-22T09:59:45;14.40;99.90
25328;DHT22;13279;51.300;12.394;2024-03-22T10:02:12;14.30;99.90
25328;DHT22;13279;51.300;12.394;2024-03-22T10:04:40;14.20;99.90
25328;DHT22;13279;51.300;12.394;2024-03-22T10:07:07;13.80;99.90
25328;DHT22;13279;51.300;12.394;2024-03-22T10:09:37;13.70;99.90
25328;DHT22;13279;51.300;12.394;2024-03-22T10:12:04;13.80;99.90
25328;DHT22;13279;51.300;12.394;2024-03-22T10:14:32;13.80;99.90
25328;DHT22;13279;51.300;12.394;2024-03-22T10:17:00;13.80;99.90
25328;DHT22;13279;51.300;12.394;2024-03-22T10:19:27;13.90;99.90
25328;DHT22;13279;51.300;12.394;2024-03-22T10:22:00;13.80;99.90
25328;DHT22;13279;51.300;12.394;2024-03-22T10:24:28;13.80;99.90
25328;DHT22;13279;51.300;12.394;2024-03-22T10:26:56;13.70;99.90
25328;DHT22;13279;51.300;12.394;2024-03-22T10:29:23;13.60;99.90
25328;DHT22;13279;51.300;12.394;2024-03-22T10:31:50;13.60;99.90
25328;DHT22;13279;51.300;12.394;2024-03-22T10:34:18;13.60;99.90
25328;DHT22;13279;51.300;12.394;2024-03-22T10:36:48;13.70;99.90
25328;DHT22;13279;51.300;12.394;2024-03-22T10:39:17;13.80;99.90
25328;DHT22;13279;51.300;12.394;2024-03-22T10:41:45;13.80;99.90
25328;DHT22;13279;51.300;12.394;2024-03-22T10:44:15;13.90;99.90
25328;DHT22;13279;51.300;12.394;2024-03-22T10:46:45;14.00;99.90
25328;DHT22;13279;51.300;12.394;2024-03-22T10:49:16;14.00;99.90
25328;DHT22;13279;51.300;12.394;2024-03-22T10:51:45;14.10;99.90
25328;DHT22;13279;51.300;12.394;2024-03-22T10:54:16;14.20;99.90
25328;DHT22;13279;51.300;12.394;2024-03-22T10:56:44;14.20;99.90
25328;DHT22;13279;51.300;12.394;2024-03-22T10:59:15;14.30;99.90
25328;DHT22;13279;51.300;12.394;2024-03-22T11:01:45;14.40;99.90
25328;DHT22;13279;51.300;12.394;2024-03-22T11:04:14;14.60;99.90
25328;DHT22;13279;51.300;12.394;2024-03-22T11:06:47;14.80;99.90
25328;DHT22;13279;51.300;12.394;2024-03-22T11:09:20;15.00;99.90
25328;DHT22;13279;51.300;12.394;2024-03-22T11:11:51;15.10;99.90
25328;DHT22;13279;51.300;12.394;2024-03-22T11:14:19;15.00;99.90
25328;DHT22;13279;51.300;12.394;2024-03-22T11:16:48;15.00;99.90
25328;DHT22;13279;51.300;12.394;2024-03-22T11:19:14;15.00;99.90
25328;DHT22;13279;51.300;12.394;2024-03-22T11:21:41;15.10;99.90
25328;DHT22;13279;51.300;12.394;2024-03-22T11:24:08;15.30;99.90
25328;DHT22;13279;51.300;12.394;2024-03-22T11:26:37;15.50;99.90
25328;DHT22;13279;51.300;12.394;2024-03-22T11:29:03;15.40;99.90
25328;DHT22;13279;51.300;12.394;2024-03-22T11:31:33;15.50;99.90
25328;DHT22;13279;51.300;12.394;2024-03-22T11:34:00;15.60;99.90
25328;DHT22;13279;51.300;12.394;2024-03-22T11:36:27;15.60;99.90
25328;DHT22;13279;51.300;12.394;2024-03-22T11:38:53;15.40;99.90
25328;DHT22;13279;51.300;12.394;2024-03-22T11:41:23;15.50;99.90
25328;DHT22;13279;51.300;12.394;2024-03-22T11:43:50;15.50;99.90
25328;DHT22;13279;51.300;12.394;2024-03-22T11:46:19;15.60;99.90
25328;DHT22;13279;51.300;12.394;2024-03-22T11:48:53;15.70;99.90
25328;DHT22;13279;51.300;12.394;2024-03-22T11:51:20;15.70;99.90
25328;DHT22;13279;51.300;12.394;2024-03-22T11:53:50;15.70;99.90
25328;DHT22;13279;51.300;12.394;2024-03-22T11:56:18;15.60;99.90
25328;DHT22;13279;51.300;12.394;2024-03-22T11:58:46;15.70;99.90
25328;DHT22;13279;51.300;12.394;2024-03-22T12:01:15;15.60;99.90
25328;DHT22;13279;51.300;12.394;2024-03-22T12:03:43;15.60;99.90
25328;DHT22;13279;51.300;12.394;2024-03-22T12:06:13;15.70;99.90
25328;DHT22;13279;51.300;12.394;2024-03-22T12:08:40;15.70;99.90
25328;DHT22;13279;51.300;12.394;2024-03-22T12:11:08;15.80;99.90
25328;DHT22;13279;51.300;12.394;2024-03-22T12:13:35;15.90;99.90
25328;DHT22;13279;51.300;12.394;2024-03-22T12:16:04;15.90;99.90
25328;DHT22;13279;51.300;12.394;2024-03-22T12:18:31;15.80;99.90
25328;DHT22;13279;51.300;12.394;2024-03-22T12:20:58;15.70;99.90
25328;DHT22;13279;51.300;12.394;2024-03-22T12:23:25;15.70;99.90
25328;DHT22;13279;51.300;12.394;2024-03-22T12:25:52;15.80;99.90
25328;DHT22;13279;51.300;12.394;2024-03-22T12:28:20;16.00;99.90
25328;DHT22;13279;51.300;12.394;2024-03-22T12:30:47;15.90;99.90
25328;DHT22;13279;51.300;12.394;2024-03-22T12:33:14;16.00;99.90
25328;DHT22;13279;51.300;12.394;2024-03-22T12:35:42;15.80;99.90
25328;DHT22;13279;51.300;12.394;2024-03-22T12:38:09;15.90;99.90
25328;DHT22;13279;51.300;12.394;2024-03-22T12:40:41;16.00;99.90
25328;DHT22;13279;51.300;12.394;2024-03-22T12:43:09;16.10;99.90
25328;DHT22;13279;51.300;12.394;2024-03-22T12:45:37;16.00;99.90
25328;DHT22;13279;51.300;12.394;2024-03-22T12:48:04;16.10;99.90
25328;DHT22;13279;51.300;12.394;2024-03-22T12:50:31;16.20;99.90
25328;DHT22;13279;51.300;12.394;2024-03-22T12:52:59;16.40;99.90
25328;DHT22;13279;51.300;12.394;2024-03-22T12:55:26;16.50;99.90
25328;DHT22;13279;51.300;12.394;2024-03-22T12:57:55;16.50;99.90
25328;DHT22;13279;51.300;12.394;2024-03-22T13:00:23;16.60;99.90
25328;DHT22;13279;51.300;12.394;2024-03-22T13:02:49;16.80;99.90
25328;DHT22;13279;51.300;12.394;2024-03-22T13:05:18;16.80;99.90
25328;DHT22;13279;51.300;12.394;2024-03-22T13:07:47;16.80;99.90
25328;DHT22;13279;51.300;12.394;2024-03-22T13:10:26;16.90;99.90
25328;DHT22;13279;51.300;12.394;2024-03-22T13:16:48;16.70;99.90
25328;DHT22;13279;51.300;12.394;2024-03-22T13:19:31;16.70;99.90
25328;DHT22;13279;51.300;12.394;2024-03-22T13:21:57;16.80;99.90
25328;DHT22;13279;51.300;12.394;2024-03-22T13:24:24;16.90;99.90
25328;DHT22;13279;51.300;12.394;2024-03-22T13:26:51;17.10;99.90
25328;DHT22;13279;51.300;12.394;2024-03-22T13:29:18;17.50;99.90
25328;DHT22;13279;51.300;12.394;2024-03-22T13:31:46;17.70;99.90
25328;DHT22;13279;51.300;12.394;2024-03-22T13:34:13;17.60;99.90
25328;DHT22;13279;51.300;12.394;2024-03-22T13:36:40;17.40;99.90
25328;DHT22;13279;51.300;12.394;2024-03-22T13:39:07;17.70;99.90
25328;DHT22;13279;51.300;12.394;2024-03-22T13:41:36;17.90;99.90
25328;DHT22;13279;51.300;12.394;2024-03-22T13:44:03;17.60;99.90
25328;DHT22;13279;51.300;12.394;2024-03-22T13:46:30;17.50;99.90
25328;DHT22;13279;51.300;12.394;2024-03-22T13:48:59;17.20;99.90
25328;DHT22;13279;51.300;12.394;2024-03-22T13:51:25;16.90;99.90
25328;DHT22;13279;51.300;12.394;2024-03-22T13:53:54;17.00;99.90
25328;DHT22;13279;51.300;12.394;2024-03-22T13:56:21;17.20;99.90
25328;DHT22;13279;51.300;12.394;2024-03-22T13:58:48;17.40;99.90
25328;DHT22;13279;51.300;12.394;2024-03-22T14:01:15;17.40;99.90
25328;DHT22;13279;51.300;12.394;2024-03-22T14:03:42;17.10;99.90
25328;DHT22;13279;51.300;12.394;2024-03-22T14:06:10;17.00;99.90
25328;DHT22;13279;51.300;12.394;2024-03-22T14:08:38;16.80;99.90
25328;DHT22;13279;51.300;12.394;2024-03-22T14:11:04;16.70;99.90
25328;DHT22;13279;51.300;12.394;2024-03-22T14:13:32;16.60;99.90
25328;DHT22;13279;51.300;12.394;2024-03-22T14:15:58;16.40;99.90
25328;DHT22;13279;51.300;12.394;2024-03-22T14:18:25;16.40;99.90
25328;DHT22;13279;51.300;12.394;2024-03-22T14:20:52;16.40;99.90
25328;DHT22;13279;51.300;12.394;2024-03-22T14:23:21;16.50;99.90
25328;DHT22;13279;51.300;12.394;2024-03-22T14:25:47;16.40;99.90
25328;DHT22;13279;51.300;12.394;2024-03-22T14:28:15;16.30;99.90
25328;DHT22;13279;51.300;12.394;2024-03-22T14:30:41;16.20;99.90
25328;DHT22;13279;51.300;12.394;2024-03-22T14:33:08;16.20;99.90
25328;DHT22;13279;51.300;12.394;2024-03-22T14:35:34;16.20;99.90
25328;DHT22;13279;51.300;12.394;2024-03-22T14:38:01;16.10;99.90
25328;DHT22;13279;51.300;12.394;2024-03-22T14:40:28;15.90;99.90
25328;DHT22;13279;51.300;12.394;2024-03-22T14:42:57;15.80;99.90
25328;DHT22;13279;51.300;12.394;2024-03-22T14:45:23;15.70;99.90
25328;DHT22;13279;51.300;12.394;2024-03-22T14:47:50;15.60;99.90
25328;DHT22;13279;51.300;12.394;2024-03-22T14:50:17;15.50;99.90
25328;DHT22;13279;51.300;12.394;2024-03-22T14:52:47;15.30;99.90
25328;DHT22;13279;51.300;12.394;2024-03-22T14:55:14;15.30;99.90
25328;DHT22;13279;51.300;12.394;2024-03-22T14:57:43;15.20;99.90
25328;DHT22;13279;51.300;12.394;2024-03-22T15:00:11;15.20;99.90
25328;DHT22;13279;51.300;12.394;2024-03-22T15:02:39;15.20;99.90
25328;DHT22;13279;51.300;12.394;2024-03-22T15:05:05;15.00;99.90
25328;DHT22;13279;51.300;12.394;2024-03-22T15:07:33;15.20;99.90
25328;DHT22;13279;51.300;12.394;2024-03-22T15:09:59;15.10;99.90
25328;DHT22;13279;51.300;12.394;2024-03-22T15:12:26;15.00;99.90
25328;DHT22;13279;51.300;12.394;2024-03-22T15:14:54;14.80;99.90
25328;DHT22;13279;51.300;12.394;2024-03-22T15:17:22;14.70;99.90
25328;DHT22;13279;51.300;12.394;2024-03-22T15:19:48;14.60;99.90
25328;DHT22;13279;51.300;12.394;2024-03-22T15:22:16;14.60;99.90
25328;DHT22;13279;51.300;12.394;2024-03-22T15:24:45;14.60;99.90
25328;DHT22;13279;51.300;12.394;2024-03-22T15:27:12;14.60;99.90
25328;DHT22;13279;51.300;12.394;2024-03-22T15:29:39;14.50;99.90
25328;DHT22;13279;51.300;12.394;2024-03-22T15:32:08;14.50;99.90
25328;DHT22;13279;51.300;12.394;2024-03-22T15:34:35;14.50;99.90
25328;DHT22;13279;51.300;12.394;2024-03-22T15:37:02;14.50;99.90
25328;DHT22;13279;51.300;12.394;2024-03-22T15:39:29;14.50;99.90
25328;DHT22;13279;51.300;12.394;2024-03-22T15:41:57;14.50;99.90
25328;DHT22;13279;51.300;12.394;2024-03-22T15:44:24;14.50;99.90
25328;DHT22;13279;51.300;12.394;2024-03-22T15:46:52;14.50;99.90
25328;DHT22;13279;51.300;12.394;2024-03-22T15:49:19;14.50;99.90
25328;DHT22;13279;51.300;12.394;2024-03-22T15:51:47;14.50;99.90
25328;DHT22;13279;51.300;12.394;2024-03-22T15:54:13;14.50;99.90
25328;DHT22;13279;51.300;12.394;2024-03-22T15:56:41;14.60;99.90
25328;DHT22;13279;51.300;12.394;2024-03-22T15:59:07;14.50;99.90
25328;DHT22;13279;51.300;12.394;2024-03-22T16:01:35;14.60;99.90
25328;DHT22;13279;51.300;12.394;2024-03-22T16:04:02;14.50;99.90
25328;DHT22;13279;51.300;12.394;2024-03-22T16:06:31;14.50;99.90